sensor_id;sensor_type;location;lat;lon;timestamp;P1;durP1;ratioP1;P2;durP2;ratioP2
62423;SDS011;48463;43.604;3.872;2023-05-07T00:00:37;20.80;;;11.82;;
62423;SDS011;48463;43.604;3.872;2023-05-07T00:03:03;13.75;;;10.70;;
62423;SDS011;48463;43.604;3.872;2023-05-07T00:05:29;14.30;;;11.18;;
62423;SDS011;48463;43.604;3.872;2023-05-07T00:07:55;14.10;;;11.20;;
62423;SDS011;48463;43.604;3.872;2023-05-07T00:10:20;13.60;;;11.00;;
62423;SDS011;48463;43.604;3.872;2023-05-07T00:12:46;16.35;;;11.07;;
62423;SDS011;48463;43.604;3.872;2023-05-07T00:15:12;13.50;;;10.95;;
62423;SDS011;48463;43.604;3.872;2023-05-07T00:17:38;12.80;;;11.23;;
62423;SDS011;48463;43.604;3.872;2023-05-07T00:20:04;13.93;;;10.23;;
62423;SDS011;48463;43.604;3.872;2023-05-07T00:22:30;13.48;;;9.95;;
62423;SDS011;48463;43.604;3.872;2023-05-07T00:24:57;13.50;;;8.90;;
62423;SDS011;48463;43.604;3.872;2023-05-07T00:27:24;9.45;;;6.85;;
62423;SDS011;48463;43.604;3.872;2023-05-07T00:29:50;8.68;;;7.20;;
62423;SDS011;48463;43.604;3.872;2023-05-07T00:32:15;10.73;;;8.15;;
62423;SDS011;48463;43.604;3.872;2023-05-07T00:34:41;8.68;;;6.95;;
62423;SDS011;48463;43.604;3.872;2023-05-07T00:37:07;9.80;;;7.75;;
62423;SDS011;48463;43.604;3.872;2023-05-07T00:39:34;8.90;;;6.93;;
62423;SDS011;48463;43.604;3.872;2023-05-07T00:42:01;9.38;;;7.53;;
62423;SDS011;48463;43.604;3.872;2023-05-07T00:44:27;10.02;;;8.02;;
62423;SDS011;48463;43.604;3.872;2023-05-07T00:46:54;10.52;;;6.90;;
62423;SDS011;48463;43.604;3.872;2023-05-07T00:49:22;9.85;;;6.13;;
62423;SDS011;48463;43.604;3.872;2023-05-07T00:51:52;17.85;;;6.28;;
62423;SDS011;48463;43.604;3.872;2023-05-07T00:54:17;8.23;;;6.10;;
62423;SDS011;48463;43.604;3.872;2023-05-07T00:56:44;7.45;;;4.97;;
62423;SDS011;48463;43.604;3.872;2023-05-07T00:59:10;7.43;;;4.70;;
62423;SDS011;48463;43.604;3.872;2023-05-07T01:01:36;7.30;;;4.80;;
62423;SDS011;48463;43.604;3.872;2023-05-07T01:04:01;7.03;;;4.68;;
62423;SDS011;48463;43.604;3.872;2023-05-07T01:06:27;10.73;;;5.20;;
62423;SDS011;48463;43.604;3.872;2023-05-07T01:08:54;6.65;;;4.05;;
62423;SDS011;48463;43.604;3.872;2023-05-07T01:11:22;6.93;;;4.50;;
62423;SDS011;48463;43.604;3.872;2023-05-07T01:13:48;7.18;;;4.40;;
62423;SDS011;48463;43.604;3.872;2023-05-07T01:16:15;5.68;;;3.50;;
62423;SDS011;48463;43.604;3.872;2023-05-07T01:18:40;10.90;;;4.65;;
62423;SDS011;48463;43.604;3.872;2023-05-07T01:21:06;5.78;;;3.28;;
62423;SDS011;48463;43.604;3.872;2023-05-07T01:23:35;6.35;;;3.97;;
62423;SDS011;48463;43.604;3.872;2023-05-07T01:26:01;8.00;;;3.90;;
62423;SDS011;48463;43.604;3.872;2023-05-07T01:28:27;8.38;;;4.43;;
62423;SDS011;48463;43.604;3.872;2023-05-07T01:30:54;7.97;;;5.00;;
62423;SDS011;48463;43.604;3.872;2023-05-07T01:33:21;9.68;;;5.22;;
62423;SDS011;48463;43.604;3.872;2023-05-07T01:35:49;8.07;;;4.35;;
62423;SDS011;48463;43.604;3.872;2023-05-07T01:38:18;6.47;;;4.43;;
62423;SDS011;48463;43.604;3.872;2023-05-07T01:40:45;7.90;;;4.25;;
62423;SDS011;48463;43.604;3.872;2023-05-07T01:43:11;7.25;;;4.30;;
62423;SDS011;48463;43.604;3.872;2023-05-07T01:45:37;7.65;;;4.07;;
62423;SDS011;48463;43.604;3.872;2023-05-07T01:48:03;6.72;;;4.03;;
62423;SDS011;48463;43.604;3.872;2023-05-07T01:50:31;7.43;;;4.55;;
62423;SDS011;48463;43.604;3.872;2023-05-07T01:52:57;9.65;;;5.13;;
62423;SDS011;48463;43.604;3.872;2023-05-07T01:55:22;9.25;;;5.13;;
62423;SDS011;48463;43.604;3.872;2023-05-07T01:57:48;7.88;;;5.20;;
62423;SDS011;48463;43.604;3.872;2023-05-07T02:00:14;8.07;;;5.32;;
62423;SDS011;48463;43.604;3.872;2023-05-07T02:02:40;8.73;;;5.22;;
62423;SDS011;48463;43.604;3.872;2023-05-07T02:05:06;13.93;;;5.20;;
62423;SDS011;48463;43.604;3.872;2023-05-07T02:07:32;7.40;;;5.10;;
62423;SDS011;48463;43.604;3.872;2023-05-07T02:09:57;8.65;;;6.22;;
62423;SDS011;48463;43.604;3.872;2023-05-07T02:12:23;9.52;;;5.60;;
62423;SDS011;48463;43.604;3.872;2023-05-07T02:14:49;8.63;;;5.40;;
62423;SDS011;48463;43.604;3.872;2023-05-07T02:17:15;9.07;;;5.65;;
62423;SDS011;48463;43.604;3.872;2023-05-07T02:19:40;7.13;;;4.93;;
62423;SDS011;48463;43.604;3.872;2023-05-07T02:22:06;8.20;;;5.10;;
62423;SDS011;48463;43.604;3.872;2023-05-07T02:24:32;8.55;;;4.68;;
62423;SDS011;48463;43.604;3.872;2023-05-07T02:26:58;15.95;;;5.53;;
62423;SDS011;48463;43.604;3.872;2023-05-07T02:29:24;6.63;;;4.40;;
62423;SDS011;48463;43.604;3.872;2023-05-07T02:31:49;9.18;;;5.45;;
62423;SDS011;48463;43.604;3.872;2023-05-07T02:34:18;11.20;;;7.10;;
62423;SDS011;48463;43.604;3.872;2023-05-07T02:36:44;11.63;;;7.93;;
62423;SDS011;48463;43.604;3.872;2023-05-07T02:39:10;8.20;;;6.72;;
62423;SDS011;48463;43.604;3.872;2023-05-07T02:41:37;9.30;;;7.47;;
62423;SDS011;48463;43.604;3.872;2023-05-07T02:44:03;12.77;;;8.05;;
62423;SDS011;48463;43.604;3.872;2023-05-07T02:46:29;10.82;;;8.32;;
62423;SDS011;48463;43.604;3.872;2023-05-07T02:48:54;11.05;;;9.38;;
62423;SDS011;48463;43.604;3.872;2023-05-07T02:51:21;18.65;;;10.75;;
62423;SDS011;48463;43.604;3.872;2023-05-07T02:53:47;22.45;;;19.92;;
62423;SDS011;48463;43.604;3.872;2023-05-07T02:56:13;19.85;;;14.80;;
62423;SDS011;48463;43.604;3.872;2023-05-07T02:58:38;11.77;;;10.18;;
62423;SDS011;48463;43.604;3.872;2023-05-07T03:01:05;19.27;;;9.73;;
62423;SDS011;48463;43.604;3.872;2023-05-07T03:03:31;15.05;;;9.30;;
62423;SDS011;48463;43.604;3.872;2023-05-07T03:05:56;10.82;;;7.57;;
62423;SDS011;48463;43.604;3.872;2023-05-07T03:08:22;11.27;;;7.80;;
62423;SDS011;48463;43.604;3.872;2023-05-07T03:10:49;12.10;;;8.48;;
62423;SDS011;48463;43.604;3.872;2023-05-07T03:13:15;14.00;;;8.15;;
62423;SDS011;48463;43.604;3.872;2023-05-07T03:15:41;10.38;;;7.40;;
62423;SDS011;48463;43.604;3.872;2023-05-07T03:18:07;11.30;;;7.50;;
62423;SDS011;48463;43.604;3.872;2023-05-07T03:20:32;28.70;;;11.25;;
62423;SDS011;48463;43.604;3.872;2023-05-07T03:22:58;9.40;;;7.82;;
62423;SDS011;48463;43.604;3.872;2023-05-07T03:25:24;13.07;;;7.43;;
62423;SDS011;48463;43.604;3.872;2023-05-07T03:27:50;12.52;;;7.80;;
62423;SDS011;48463;43.604;3.872;2023-05-07T03:30:15;8.40;;;6.55;;
62423;SDS011;48463;43.604;3.872;2023-05-07T03:32:41;9.88;;;7.28;;
62423;SDS011;48463;43.604;3.872;2023-05-07T03:35:08;10.90;;;7.78;;
62423;SDS011;48463;43.604;3.872;2023-05-07T03:37:33;8.52;;;6.95;;
62423;SDS011;48463;43.604;3.872;2023-05-07T03:39:59;9.73;;;8.05;;
62423;SDS011;48463;43.604;3.872;2023-05-07T03:42:25;13.98;;;7.70;;
62423;SDS011;48463;43.604;3.872;2023-05-07T03:44:50;10.38;;;6.60;;
62423;SDS011;48463;43.604;3.872;2023-05-07T03:47:16;106.60;;;19.23;;
62423;SDS011;48463;43.604;3.872;2023-05-07T03:49:42;27.52;;;10.00;;
62423;SDS011;48463;43.604;3.872;2023-05-07T03:52:07;10.50;;;7.47;;
62423;SDS011;48463;43.604;3.872;2023-05-07T03:54:33;14.13;;;7.53;;
62423;SDS011;48463;43.604;3.872;2023-05-07T03:56:58;11.52;;;7.63;;
62423;SDS011;48463;43.604;3.872;2023-05-07T03:59:24;9.35;;;6.72;;
62423;SDS011;48463;43.604;3.872;2023-05-07T04:01:50;15.70;;;7.38;;
62423;SDS011;48463;43.604;3.872;2023-05-07T04:04:16;10.52;;;7.00;;
62423;SDS011;48463;43.604;3.872;2023-05-07T04:06:51;9.52;;;7.38;;
62423;SDS011;48463;43.604;3.872;2023-05-07T04:09:39;15.45;;;8.73;;
62423;SDS011;48463;43.604;3.872;2023-05-07T04:12:18;8.15;;;6.75;;
62423;SDS011;48463;43.604;3.872;2023-05-07T04:15:29;9.05;;;7.47;;
62423;SDS011;48463;43.604;3.872;2023-05-07T04:19:12;10.80;;;6.97;;
62423;SDS011;48463;43.604;3.872;2023-05-07T04:22:25;9.05;;;7.03;;
62423;SDS011;48463;43.604;3.872;2023-05-07T04:25:28;13.70;;;7.20;;
62423;SDS011;48463;43.604;3.872;2023-05-07T04:28:07;14.88;;;7.28;;
62423;SDS011;48463;43.604;3.872;2023-05-07T04:30:46;9.13;;;7.78;;
62423;SDS011;48463;43.604;3.872;2023-05-07T04:34:03;8.13;;;6.95;;
62423;SDS011;48463;43.604;3.872;2023-05-07T04:36:31;9.00;;;6.88;;
62423;SDS011;48463;43.604;3.872;2023-05-07T04:39:09;10.75;;;7.18;;
62423;SDS011;48463;43.604;3.872;2023-05-07T04:41:41;15.45;;;7.53;;
62423;SDS011;48463;43.604;3.872;2023-05-07T04:44:06;20.45;;;7.25;;
62423;SDS011;48463;43.604;3.872;2023-05-07T04:46:34;18.27;;;7.28;;
62423;SDS011;48463;43.604;3.872;2023-05-07T04:49:03;8.15;;;5.80;;
62423;SDS011;48463;43.604;3.872;2023-05-07T04:51:40;9.93;;;6.43;;
62423;SDS011;48463;43.604;3.872;2023-05-07T04:54:31;8.57;;;5.33;;
62423;SDS011;48463;43.604;3.872;2023-05-07T04:57:00;8.35;;;5.78;;
62423;SDS011;48463;43.604;3.872;2023-05-07T04:59:32;9.45;;;6.07;;
62423;SDS011;48463;43.604;3.872;2023-05-07T05:02:07;10.18;;;6.50;;
62423;SDS011;48463;43.604;3.872;2023-05-07T05:04:33;7.50;;;5.22;;
62423;SDS011;48463;43.604;3.872;2023-05-07T05:06:58;9.43;;;5.72;;
62423;SDS011;48463;43.604;3.872;2023-05-07T05:09:24;9.57;;;5.72;;
62423;SDS011;48463;43.604;3.872;2023-05-07T05:11:50;8.52;;;5.93;;
62423;SDS011;48463;43.604;3.872;2023-05-07T05:14:15;8.52;;;6.25;;
62423;SDS011;48463;43.604;3.872;2023-05-07T05:16:41;11.10;;;7.03;;
62423;SDS011;48463;43.604;3.872;2023-05-07T05:19:07;10.38;;;6.38;;
62423;SDS011;48463;43.604;3.872;2023-05-07T05:21:32;7.97;;;5.80;;
62423;SDS011;48463;43.604;3.872;2023-05-07T05:23:58;10.43;;;6.65;;
62423;SDS011;48463;43.604;3.872;2023-05-07T05:26:24;9.75;;;7.20;;
62423;SDS011;48463;43.604;3.872;2023-05-07T05:28:49;10.57;;;5.82;;
62423;SDS011;48463;43.604;3.872;2023-05-07T05:31:16;17.42;;;6.90;;
62423;SDS011;48463;43.604;3.872;2023-05-07T05:33:41;7.55;;;5.22;;
62423;SDS011;48463;43.604;3.872;2023-05-07T05:36:11;57.10;;;10.60;;
62423;SDS011;48463;43.604;3.872;2023-05-07T05:38:38;26.15;;;9.93;;
62423;SDS011;48463;43.604;3.872;2023-05-07T05:41:04;123.78;;;24.13;;
62423;SDS011;48463;43.604;3.872;2023-05-07T05:43:30;18.75;;;6.85;;
62423;SDS011;48463;43.604;3.872;2023-05-07T05:45:56;11.15;;;6.18;;
62423;SDS011;48463;43.604;3.872;2023-05-07T05:48:23;16.50;;;6.65;;
62423;SDS011;48463;43.604;3.872;2023-05-07T05:50:48;18.33;;;6.60;;
62423;SDS011;48463;43.604;3.872;2023-05-07T05:53:14;36.25;;;9.32;;
62423;SDS011;48463;43.604;3.872;2023-05-07T05:55:41;34.25;;;9.23;;
62423;SDS011;48463;43.604;3.872;2023-05-07T05:58:06;13.40;;;7.57;;
62423;SDS011;48463;43.604;3.872;2023-05-07T06:00:33;26.15;;;9.90;;
62423;SDS011;48463;43.604;3.872;2023-05-07T06:02:59;13.48;;;8.52;;
62423;SDS011;48463;43.604;3.872;2023-05-07T06:05:25;17.25;;;8.32;;
62423;SDS011;48463;43.604;3.872;2023-05-07T06:07:50;11.20;;;8.52;;
62423;SDS011;48463;43.604;3.872;2023-05-07T06:10:16;21.13;;;7.72;;
62423;SDS011;48463;43.604;3.872;2023-05-07T06:12:42;24.55;;;9.50;;
62423;SDS011;48463;43.604;3.872;2023-05-07T06:15:07;11.88;;;7.57;;
62423;SDS011;48463;43.604;3.872;2023-05-07T06:17:33;33.35;;;9.43;;
62423;SDS011;48463;43.604;3.872;2023-05-07T06:19:59;10.50;;;8.13;;
62423;SDS011;48463;43.604;3.872;2023-05-07T06:22:25;18.98;;;8.52;;
62423;SDS011;48463;43.604;3.872;2023-05-07T06:24:52;14.70;;;7.57;;
62423;SDS011;48463;43.604;3.872;2023-05-07T06:27:18;11.38;;;6.68;;
62423;SDS011;48463;43.604;3.872;2023-05-07T06:29:43;8.73;;;6.93;;
62423;SDS011;48463;43.604;3.872;2023-05-07T06:32:10;10.80;;;6.35;;
62423;SDS011;48463;43.604;3.872;2023-05-07T06:34:37;10.55;;;6.63;;
62423;SDS011;48463;43.604;3.872;2023-05-07T06:37:03;9.40;;;6.15;;
62423;SDS011;48463;43.604;3.872;2023-05-07T06:39:28;7.93;;;5.57;;
62423;SDS011;48463;43.604;3.872;2023-05-07T06:41:54;12.68;;;6.53;;
62423;SDS011;48463;43.604;3.872;2023-05-07T06:44:20;7.50;;;6.03;;
62423;SDS011;48463;43.604;3.872;2023-05-07T06:46:46;8.32;;;6.05;;
62423;SDS011;48463;43.604;3.872;2023-05-07T06:49:12;8.50;;;5.50;;
62423;SDS011;48463;43.604;3.872;2023-05-07T06:51:38;9.80;;;6.40;;
62423;SDS011;48463;43.604;3.872;2023-05-07T06:54:04;13.52;;;7.18;;
62423;SDS011;48463;43.604;3.872;2023-05-07T06:56:30;7.50;;;4.72;;
62423;SDS011;48463;43.604;3.872;2023-05-07T06:58:56;10.90;;;5.57;;
62423;SDS011;48463;43.604;3.872;2023-05-07T07:01:21;9.23;;;5.63;;
62423;SDS011;48463;43.604;3.872;2023-05-07T07:03:47;7.70;;;4.90;;
62423;SDS011;48463;43.604;3.872;2023-05-07T07:06:13;7.97;;;4.75;;
62423;SDS011;48463;43.604;3.872;2023-05-07T07:08:40;8.43;;;5.47;;
62423;SDS011;48463;43.604;3.872;2023-05-07T07:11:06;7.97;;;4.63;;
62423;SDS011;48463;43.604;3.872;2023-05-07T07:13:33;7.30;;;4.40;;
62423;SDS011;48463;43.604;3.872;2023-05-07T07:15:59;8.90;;;4.88;;
62423;SDS011;48463;43.604;3.872;2023-05-07T07:18:25;11.68;;;5.20;;
62423;SDS011;48463;43.604;3.872;2023-05-07T07:20:51;11.60;;;5.25;;
62423;SDS011;48463;43.604;3.872;2023-05-07T07:23:16;8.30;;;4.55;;
62423;SDS011;48463;43.604;3.872;2023-05-07T07:25:42;8.82;;;4.72;;
62423;SDS011;48463;43.604;3.872;2023-05-07T07:28:08;7.40;;;4.35;;
62423;SDS011;48463;43.604;3.872;2023-05-07T07:30:33;11.52;;;4.20;;
62423;SDS011;48463;43.604;3.872;2023-05-07T07:33:00;6.95;;;4.47;;
62423;SDS011;48463;43.604;3.872;2023-05-07T07:35:28;7.38;;;3.53;;
62423;SDS011;48463;43.604;3.872;2023-05-07T07:37:55;14.27;;;4.13;;
62423;SDS011;48463;43.604;3.872;2023-05-07T07:40:21;7.85;;;3.88;;
62423;SDS011;48463;43.604;3.872;2023-05-07T07:42:47;6.28;;;3.20;;
62423;SDS011;48463;43.604;3.872;2023-05-07T07:45:13;4.47;;;2.78;;
62423;SDS011;48463;43.604;3.872;2023-05-07T07:47:39;6.82;;;3.47;;
62423;SDS011;48463;43.604;3.872;2023-05-07T07:50:05;7.13;;;2.67;;
62423;SDS011;48463;43.604;3.872;2023-05-07T07:52:32;6.00;;;3.10;;
62423;SDS011;48463;43.604;3.872;2023-05-07T07:54:57;187.20;;;27.38;;
62423;SDS011;48463;43.604;3.872;2023-05-07T07:57:25;9.02;;;2.80;;
62423;SDS011;48463;43.604;3.872;2023-05-07T07:59:51;10.85;;;3.88;;
62423;SDS011;48463;43.604;3.872;2023-05-07T08:02:17;6.13;;;2.85;;
62423;SDS011;48463;43.604;3.872;2023-05-07T08:04:43;6.03;;;2.58;;
62423;SDS011;48463;43.604;3.872;2023-05-07T08:07:09;3.85;;;2.25;;
62423;SDS011;48463;43.604;3.872;2023-05-07T08:09:37;4.25;;;2.13;;
62423;SDS011;48463;43.604;3.872;2023-05-07T08:12:03;3.25;;;1.88;;
62423;SDS011;48463;43.604;3.872;2023-05-07T08:14:29;6.82;;;3.22;;
62423;SDS011;48463;43.604;3.872;2023-05-07T08:16:55;6.30;;;2.50;;
62423;SDS011;48463;43.604;3.872;2023-05-07T08:19:21;6.35;;;2.83;;
62423;SDS011;48463;43.604;3.872;2023-05-07T08:21:47;4.88;;;2.63;;
62423;SDS011;48463;43.604;3.872;2023-05-07T08:24:14;6.15;;;3.00;;
62423;SDS011;48463;43.604;3.872;2023-05-07T08:26:40;17.27;;;4.30;;
62423;SDS011;48463;43.604;3.872;2023-05-07T08:29:06;11.93;;;3.90;;
62423;SDS011;48463;43.604;3.872;2023-05-07T08:31:32;7.60;;;2.95;;
62423;SDS011;48463;43.604;3.872;2023-05-07T08:33:58;4.75;;;2.72;;
62423;SDS011;48463;43.604;3.872;2023-05-07T08:36:24;8.93;;;3.72;;
62423;SDS011;48463;43.604;3.872;2023-05-07T08:38:50;13.98;;;4.05;;
62423;SDS011;48463;43.604;3.872;2023-05-07T08:41:16;4.32;;;2.83;;
62423;SDS011;48463;43.604;3.872;2023-05-07T08:43:42;5.53;;;2.42;;
62423;SDS011;48463;43.604;3.872;2023-05-07T08:46:16;9.55;;;2.92;;
62423;SDS011;48463;43.604;3.872;2023-05-07T08:48:43;7.53;;;3.08;;
62423;SDS011;48463;43.604;3.872;2023-05-07T08:51:12;9.80;;;2.75;;
62423;SDS011;48463;43.604;3.872;2023-05-07T08:53:41;29.67;;;4.43;;
62423;SDS011;48463;43.604;3.872;2023-05-07T08:56:08;12.85;;;4.13;;
62423;SDS011;48463;43.604;3.872;2023-05-07T08:58:34;17.60;;;4.25;;
62423;SDS011;48463;43.604;3.872;2023-05-07T09:01:07;14.60;;;3.70;;
62423;SDS011;48463;43.604;3.872;2023-05-07T09:03:34;11.47;;;3.37;;
62423;SDS011;48463;43.604;3.872;2023-05-07T09:06:02;49.97;;;8.02;;
62423;SDS011;48463;43.604;3.872;2023-05-07T09:08:28;8.57;;;2.88;;
62423;SDS011;48463;43.604;3.872;2023-05-07T09:10:54;13.07;;;2.80;;
62423;SDS011;48463;43.604;3.872;2023-05-07T09:13:19;22.55;;;3.05;;
62423;SDS011;48463;43.604;3.872;2023-05-07T09:15:45;9.27;;;2.67;;
62423;SDS011;48463;43.604;3.872;2023-05-07T09:18:14;9.13;;;2.38;;
62423;SDS011;48463;43.604;3.872;2023-05-07T09:20:40;2.88;;;2.00;;
62423;SDS011;48463;43.604;3.872;2023-05-07T09:23:06;5.22;;;2.08;;
62423;SDS011;48463;43.604;3.872;2023-05-07T09:25:32;10.15;;;2.50;;
62423;SDS011;48463;43.604;3.872;2023-05-07T09:28:02;4.38;;;2.40;;
62423;SDS011;48463;43.604;3.872;2023-05-07T09:30:30;3.72;;;2.22;;
62423;SDS011;48463;43.604;3.872;2023-05-07T09:32:59;35.40;;;5.10;;
62423;SDS011;48463;43.604;3.872;2023-05-07T09:35:27;12.35;;;2.60;;
62423;SDS011;48463;43.604;3.872;2023-05-07T09:37:53;8.88;;;2.60;;
62423;SDS011;48463;43.604;3.872;2023-05-07T09:40:24;33.30;;;5.40;;
62423;SDS011;48463;43.604;3.872;2023-05-07T09:42:51;3.42;;;2.35;;
62423;SDS011;48463;43.604;3.872;2023-05-07T09:45:29;32.90;;;4.38;;
62423;SDS011;48463;43.604;3.872;2023-05-07T09:47:56;14.85;;;2.17;;
62423;SDS011;48463;43.604;3.872;2023-05-07T09:50:26;1.83;;;1.33;;
62423;SDS011;48463;43.604;3.872;2023-05-07T09:52:57;6.80;;;2.30;;
62423;SDS011;48463;43.604;3.872;2023-05-07T09:55:23;3.45;;;2.08;;
62423;SDS011;48463;43.604;3.872;2023-05-07T09:57:50;4.68;;;2.13;;
62423;SDS011;48463;43.604;3.872;2023-05-07T10:00:18;13.68;;;2.97;;
62423;SDS011;48463;43.604;3.872;2023-05-07T10:02:46;10.07;;;2.08;;
62423;SDS011;48463;43.604;3.872;2023-05-07T10:05:16;13.25;;;3.38;;
62423;SDS011;48463;43.604;3.872;2023-05-07T10:07:46;5.72;;;1.90;;
62423;SDS011;48463;43.604;3.872;2023-05-07T10:10:13;5.07;;;2.10;;
62423;SDS011;48463;43.604;3.872;2023-05-07T10:12:40;3.97;;;1.80;;
62423;SDS011;48463;43.604;3.872;2023-05-07T10:15:10;9.00;;;2.40;;
62423;SDS011;48463;43.604;3.872;2023-05-07T10:17:37;4.13;;;1.88;;
62423;SDS011;48463;43.604;3.872;2023-05-07T10:20:04;4.60;;;2.28;;
62423;SDS011;48463;43.604;3.872;2023-05-07T10:22:32;3.75;;;1.65;;
62423;SDS011;48463;43.604;3.872;2023-05-07T10:25:16;1.92;;;1.50;;
62423;SDS011;48463;43.604;3.872;2023-05-07T10:27:45;4.85;;;2.10;;
62423;SDS011;48463;43.604;3.872;2023-05-07T10:33:21;11.88;;;2.00;;
62423;SDS011;48463;43.604;3.872;2023-05-07T10:35:52;9.27;;;2.92;;
62423;SDS011;48463;43.604;3.872;2023-05-07T10:38:23;6.30;;;2.55;;
62423;SDS011;48463;43.604;3.872;2023-05-07T10:40:50;3.13;;;1.45;;
62423;SDS011;48463;43.604;3.872;2023-05-07T10:43:16;4.85;;;1.88;;
62423;SDS011;48463;43.604;3.872;2023-05-07T10:45:42;3.60;;;1.80;;
62423;SDS011;48463;43.604;3.872;2023-05-07T10:48:12;6.70;;;2.10;;
62423;SDS011;48463;43.604;3.872;2023-05-07T10:50:42;6.15;;;2.05;;
62423;SDS011;48463;43.604;3.872;2023-05-07T10:55:48;10.25;;;1.75;;
62423;SDS011;48463;43.604;3.872;2023-05-07T11:00:46;1.45;;;1.30;;
62423;SDS011;48463;43.604;3.872;2023-05-07T11:03:12;3.83;;;1.60;;
62423;SDS011;48463;43.604;3.872;2023-05-07T11:05:40;5.18;;;2.00;;
62423;SDS011;48463;43.604;3.872;2023-05-07T11:08:07;6.97;;;1.60;;
62423;SDS011;48463;43.604;3.872;2023-05-07T11:10:53;1.27;;;1.17;;
62423;SDS011;48463;43.604;3.872;2023-05-07T11:16:18;3.60;;;1.48;;
62423;SDS011;48463;43.604;3.872;2023-05-07T11:18:52;3.65;;;1.70;;
62423;SDS011;48463;43.604;3.872;2023-05-07T11:21:32;12.52;;;2.58;;
62423;SDS011;48463;43.604;3.872;2023-05-07T11:23:59;5.13;;;1.73;;
62423;SDS011;48463;43.604;3.872;2023-05-07T11:26:26;4.63;;;1.42;;
62423;SDS011;48463;43.604;3.872;2023-05-07T11:28:52;13.85;;;1.95;;
62423;SDS011;48463;43.604;3.872;2023-05-07T11:31:20;6.25;;;1.80;;
62423;SDS011;48463;43.604;3.872;2023-05-07T11:33:48;7.78;;;2.10;;
62423;SDS011;48463;43.604;3.872;2023-05-07T11:36:16;4.00;;;2.00;;
62423;SDS011;48463;43.604;3.872;2023-05-07T11:38:44;3.00;;;1.33;;
62423;SDS011;48463;43.604;3.872;2023-05-07T11:41:10;7.45;;;1.45;;
62423;SDS011;48463;43.604;3.872;2023-05-07T11:43:36;6.65;;;1.58;;
62423;SDS011;48463;43.604;3.872;2023-05-07T11:46:19;2.15;;;1.13;;
62423;SDS011;48463;43.604;3.872;2023-05-07T11:48:45;2.47;;;1.02;;
62423;SDS011;48463;43.604;3.872;2023-05-07T11:51:12;0.80;;;0.80;;
62423;SDS011;48463;43.604;3.872;2023-05-07T11:53:39;4.50;;;2.03;;
62423;SDS011;48463;43.604;3.872;2023-05-07T11:56:10;4.68;;;1.50;;
62423;SDS011;48463;43.604;3.872;2023-05-07T11:58:37;2.92;;;1.33;;
62423;SDS011;48463;43.604;3.872;2023-05-07T12:01:03;2.80;;;1.27;;
62423;SDS011;48463;43.604;3.872;2023-05-07T12:03:29;10.23;;;2.95;;
62423;SDS011;48463;43.604;3.872;2023-05-07T12:05:54;27.10;;;9.68;;
62423;SDS011;48463;43.604;3.872;2023-05-07T12:08:21;4.28;;;1.73;;
62423;SDS011;48463;43.604;3.872;2023-05-07T12:10:47;79.78;;;13.68;;
62423;SDS011;48463;43.604;3.872;2023-05-07T12:13:18;16.58;;;2.30;;
62423;SDS011;48463;43.604;3.872;2023-05-07T12:15:45;3.28;;;1.38;;
62423;SDS011;48463;43.604;3.872;2023-05-07T12:18:11;6.43;;;1.40;;
62423;SDS011;48463;43.604;3.872;2023-05-07T12:20:37;2.55;;;1.33;;
62423;SDS011;48463;43.604;3.872;2023-05-07T12:23:04;6.60;;;1.60;;
62423;SDS011;48463;43.604;3.872;2023-05-07T12:25:37;3.55;;;1.67;;
62423;SDS011;48463;43.604;3.872;2023-05-07T12:28:12;2.05;;;1.23;;
62423;SDS011;48463;43.604;3.872;2023-05-07T12:30:39;3.60;;;1.30;;
62423;SDS011;48463;43.604;3.872;2023-05-07T12:33:05;3.25;;;1.67;;
62423;SDS011;48463;43.604;3.872;2023-05-07T12:35:35;2.17;;;1.40;;
62423;SDS011;48463;43.604;3.872;2023-05-07T12:38:11;6.78;;;2.58;;
62423;SDS011;48463;43.604;3.872;2023-05-07T12:40:39;7.93;;;1.67;;
62423;SDS011;48463;43.604;3.872;2023-05-07T12:45:46;3.28;;;1.20;;
62423;SDS011;48463;43.604;3.872;2023-05-07T12:48:14;8.63;;;2.13;;
62423;SDS011;48463;43.604;3.872;2023-05-07T12:50:40;59.78;;;10.13;;
62423;SDS011;48463;43.604;3.872;2023-05-07T12:53:06;4.57;;;1.70;;
62423;SDS011;48463;43.604;3.872;2023-05-07T12:55:45;9.75;;;1.58;;
62423;SDS011;48463;43.604;3.872;2023-05-07T12:58:19;3.75;;;1.70;;
62423;SDS011;48463;43.604;3.872;2023-05-07T13:00:59;11.48;;;2.47;;
62423;SDS011;48463;43.604;3.872;2023-05-07T13:03:30;12.73;;;2.20;;
62423;SDS011;48463;43.604;3.872;2023-05-07T13:05:58;5.60;;;1.58;;
62423;SDS011;48463;43.604;3.872;2023-05-07T13:08:26;3.95;;;1.55;;
62423;SDS011;48463;43.604;3.872;2023-05-07T13:11:01;1.33;;;1.10;;
62423;SDS011;48463;43.604;3.872;2023-05-07T13:13:31;3.50;;;1.73;;
62423;SDS011;48463;43.604;3.872;2023-05-07T13:15:57;2.67;;;1.20;;
62423;SDS011;48463;43.604;3.872;2023-05-07T13:18:27;4.10;;;1.77;;
62423;SDS011;48463;43.604;3.872;2023-05-07T13:20:53;8.63;;;2.10;;
62423;SDS011;48463;43.604;3.872;2023-05-07T13:23:19;7.38;;;1.52;;
62423;SDS011;48463;43.604;3.872;2023-05-07T13:25:46;2.40;;;1.52;;
62423;SDS011;48463;43.604;3.872;2023-05-07T13:28:12;3.50;;;1.40;;
62423;SDS011;48463;43.604;3.872;2023-05-07T13:30:38;3.80;;;1.40;;
62423;SDS011;48463;43.604;3.872;2023-05-07T13:33:05;2.38;;;1.30;;
62423;SDS011;48463;43.604;3.872;2023-05-07T13:35:32;5.82;;;1.70;;
62423;SDS011;48463;43.604;3.872;2023-05-07T13:37:58;23.73;;;4.30;;
62423;SDS011;48463;43.604;3.872;2023-05-07T13:40:25;5.68;;;2.42;;
62423;SDS011;48463;43.604;3.872;2023-05-07T13:42:51;5.35;;;2.55;;
62423;SDS011;48463;43.604;3.872;2023-05-07T13:45:20;5.18;;;2.17;;
62423;SDS011;48463;43.604;3.872;2023-05-07T13:47:46;3.13;;;1.50;;
62423;SDS011;48463;43.604;3.872;2023-05-07T13:50:13;4.70;;;2.08;;
62423;SDS011;48463;43.604;3.872;2023-05-07T13:52:43;6.72;;;1.98;;
62423;SDS011;48463;43.604;3.872;2023-05-07T13:55:18;6.55;;;1.77;;
62423;SDS011;48463;43.604;3.872;2023-05-07T13:57:46;8.73;;;2.33;;
62423;SDS011;48463;43.604;3.872;2023-05-07T14:00:12;5.90;;;1.98;;
62423;SDS011;48463;43.604;3.872;2023-05-07T14:02:39;5.38;;;2.00;;
62423;SDS011;48463;43.604;3.872;2023-05-07T14:05:05;5.57;;;2.05;;
62423;SDS011;48463;43.604;3.872;2023-05-07T14:07:31;5.95;;;4.05;;
62423;SDS011;48463;43.604;3.872;2023-05-07T14:09:57;11.80;;;4.28;;
62423;SDS011;48463;43.604;3.872;2023-05-07T14:12:23;16.38;;;4.72;;
62423;SDS011;48463;43.604;3.872;2023-05-07T14:14:48;9.02;;;2.05;;
62423;SDS011;48463;43.604;3.872;2023-05-07T14:17:16;7.30;;;1.73;;
62423;SDS011;48463;43.604;3.872;2023-05-07T14:19:43;5.30;;;1.50;;
62423;SDS011;48463;43.604;3.872;2023-05-07T14:22:09;6.93;;;2.00;;
62423;SDS011;48463;43.604;3.872;2023-05-07T14:24:35;3.38;;;1.40;;
62423;SDS011;48463;43.604;3.872;2023-05-07T14:27:01;5.65;;;1.83;;
62423;SDS011;48463;43.604;3.872;2023-05-07T14:29:27;8.45;;;1.70;;
62423;SDS011;48463;43.604;3.872;2023-05-07T14:31:53;5.82;;;1.70;;
62423;SDS011;48463;43.604;3.872;2023-05-07T14:34:18;8.77;;;2.08;;
62423;SDS011;48463;43.604;3.872;2023-05-07T14:36:45;4.72;;;1.45;;
62423;SDS011;48463;43.604;3.872;2023-05-07T14:39:10;5.18;;;1.73;;
62423;SDS011;48463;43.604;3.872;2023-05-07T14:41:36;4.18;;;1.90;;
62423;SDS011;48463;43.604;3.872;2023-05-07T14:44:02;3.38;;;1.88;;
62423;SDS011;48463;43.604;3.872;2023-05-07T14:46:29;3.30;;;1.40;;
62423;SDS011;48463;43.604;3.872;2023-05-07T14:48:56;6.72;;;2.10;;
62423;SDS011;48463;43.604;3.872;2023-05-07T14:51:22;6.97;;;2.10;;
62423;SDS011;48463;43.604;3.872;2023-05-07T14:53:49;4.70;;;1.92;;
62423;SDS011;48463;43.604;3.872;2023-05-07T14:56:15;5.72;;;1.80;;
62423;SDS011;48463;43.604;3.872;2023-05-07T14:58:42;3.63;;;1.63;;
62423;SDS011;48463;43.604;3.872;2023-05-07T15:01:08;19.17;;;3.85;;